Time;durP1;ratioP1;P1;durP2;ratioP2;P2;SDS_P1;SDS_P2;PMS_P1;PMS_P2;Temp;Humidity;BMP_temperature;BMP_pressure;BME280_temperature;BME280_humidity;BME280_pressure;Samples;Min_cycle;Max_cycle;Signal;HPM_P1;HPM_P2
2022/10/23 00:01:37;;;;;;;9.65;5.85;;;;;;;9.95;84.45;95127.84;5089183;28;20645;-87
2022/10/23 00:04:06;;;;;;;11.93;6.13;;;;;;;9.77;84.57;95112.63;5086157;28;20648;-88
2022/10/23 00:06:35;;;;;;;10.88;6.30;;;;;;;9.53;84.91;95075.13;5075176;28;20249;-87
2022/10/23 00:09:04;;;;;;;9.65;6.15;;;;;;;9.95;84.83;95141.38;5083743;28;20608;-89
2022/10/23 00:11:32;;;;;;;11.52;6.55;;;;;;;9.82;84.79;95115.22;5086767;28;20202;-90
2022/10/23 00:14:01;;;;;;;10.52;5.97;;;;;;;9.78;84.74;95120.44;5090920;28;20217;-89
2022/10/23 00:16:30;;;;;;;11.23;6.28;;;;;;;9.72;84.59;95078.38;5083186;28;20712;-87
2022/10/23 00:18:59;;;;;;;12.05;6.07;;;;;;;10.13;84.17;95142.25;5078153;28;20210;-87
2022/10/23 00:21:26;;;;;;;12.18;6.25;;;;;;;10.15;83.94;95115.66;5089751;28;20228;-89
2022/10/23 00:23:53;;;;;;;16.40;6.88;;;;;;;10.12;83.40;95092.72;5093367;28;20194;-89
2022/10/23 00:26:20;;;;;;;11.38;6.55;;;;;;;10.13;82.81;95061.84;5078534;28;20207;-89
2022/10/23 00:28:50;;;;;;;12.95;6.15;;;;;;;10.29;82.75;95083.91;5087937;28;20657;-89
2022/10/23 00:31:17;;;;;;;10.93;6.43;;;;;;;10.27;82.83;95084.22;5093834;28;20194;-87
2022/10/23 00:33:47;;;;;;;12.27;6.80;;;;;;;10.01;83.39;95080.59;5091993;28;20209;-88
2022/10/23 00:36:19;;;;;;;10.00;5.88;;;;;;;10.11;83.33;95090.34;5090270;28;20228;-88
2022/10/23 00:38:47;;;;;;;13.23;6.38;;;;;;;9.84;84.14;95097.53;5082713;28;20213;-90
2022/10/23 00:41:17;;;;;;;14.27;7.07;;;;;;;10.00;83.69;95100.63;5091448;28;20218;-89
2022/10/23 00:44:04;;;;;;;15.70;6.60;;;;;;;9.97;83.42;95095.88;5080894;28;20592;-88
2022/10/23 00:46:32;;;;;;;15.27;7.50;;;;;;;10.16;83.08;95103.72;5082069;28;20362;-88
2022/10/23 00:49:02;;;;;;;12.05;6.07;;;;;;;10.23;83.28;95121.16;5072710;28;20921;-88
2022/10/23 00:51:33;;;;;;;10.93;5.68;;;;;;;9.96;83.33;95057.19;5082709;28;20214;-89
2022/10/23 00:54:04;;;;;;;12.93;5.68;;;;;;;9.73;83.22;95042.09;5078698;28;20552;-88
2022/10/23 00:56:34;;;;;;;9.95;5.72;;;;;;;9.84;83.13;95070.47;5097804;28;20194;-89
2022/10/23 00:59:01;;;;;;;11.50;6.28;;;;;;;9.63;84.34;95101.88;5094672;28;20276;-88
2022/10/23 01:01:28;;;;;;;11.00;5.82;;;;;;;9.44;84.98;95082.34;5073432;28;20222;-89
2022/10/23 01:03:55;;;;;;;9.80;6.03;;;;;;;9.72;85.17;95105.44;5091498;28;20205;-89
2022/10/23 01:06:35;;;;;;;10.93;5.82;;;;;;;9.41;84.84;95037.81;5090951;28;20633;-88
2022/10/23 01:09:10;;;;;;;10.57;6.57;;;;;;;9.81;84.58;95081.94;5091842;28;20573;-88
2022/10/23 01:11:42;;;;;;;6.72;4.75;;;;;;;9.91;83.72;95062.72;5093106;28;20322;-89
2022/10/23 01:14:20;;;;;;;12.18;7.55;;;;;;;9.58;85.01;95072.25;5092520;28;20194;-88
2022/10/23 01:16:56;;;;;;;13.18;4.85;;;;;;;9.53;85.60;95072.41;5092092;28;20975;-88
2022/10/23 01:19:36;;;;;;;12.13;6.93;;;;;;;9.69;85.55;95095.25;5091678;28;20222;-89
2022/10/23 01:22:21;;;;;;;16.55;7.57;;;;;;;9.96;85.81;95165.44;5086402;28;20210;-88
2022/10/23 01:24:54;;;;;;;11.50;7.00;;;;;;;9.37;86.19;95085.50;5075890;28;20215;-86
2022/10/23 01:27:25;;;;;;;23.17;9.68;;;;;;;9.72;86.70;95178.47;5088348;28;20202;-87
2022/10/23 01:30:02;;;;;;;27.65;9.98;;;;;;;9.60;87.26;95172.81;5089318;28;20198;-88
2022/10/23 01:32:35;;;;;;;35.90;9.82;;;;;;;9.35;87.53;95159.91;5091660;28;20197;-88
2022/10/23 01:35:06;;;;;;;24.20;9.32;;;;;;;9.30;87.52;95157.31;5091723;28;20247;-88
2022/10/23 01:37:39;;;;;;;17.17;9.43;;;;;;;9.19;87.82;95160.28;5086783;28;20218;-89
2022/10/23 01:40:12;;;;;;;17.38;9.43;;;;;;;9.19;88.15;95162.97;5090655;28;20202;-88
2022/10/23 01:42:47;;;;;;;15.90;8.95;;;;;;;9.49;88.22;95222.84;5087789;28;20191;-88
2022/10/23 01:45:21;;;;;;;17.15;9.07;;;;;;;9.21;88.40;95176.19;5084436;28;20252;-89
2022/10/23 01:47:52;;;;;;;17.08;9.75;;;;;;;9.52;88.34;95214.13;5093214;28;20205;-88
2022/10/23 01:50:21;;;;;;;26.42;8.07;;;;;;;9.49;88.34;95201.22;5087241;28;20285;-90
2022/10/23 01:52:48;;;;;;;18.35;9.07;;;;;;;9.38;87.43;95162.81;5086971;28;20656;-88
2022/10/23 01:55:17;;;;;;;14.10;7.22;;;;;;;9.36;86.75;95129.88;5082487;28;20210;-88
2022/10/23 01:57:47;;;;;;;20.33;9.27;;;;;;;9.56;86.35;95112.38;5077584;28;20206;-88
2022/10/23 02:00:17;;;;;;;13.45;7.47;;;;;;;9.62;85.62;95098.38;5088247;28;20311;-88
2022/10/23 02:02:47;;;;;;;16.45;7.43;;;;;;;9.68;84.81;95104.47;5078843;28;20278;-86
2022/10/23 02:05:18;;;;;;;11.48;6.82;;;;;;;9.76;84.32;95122.66;5075781;28;20197;-88
2022/10/23 02:07:45;;;;;;;17.85;7.70;;;;;;;10.14;84.17;95181.75;5083440;28;20595;-89
2022/10/23 02:10:13;;;;;;;20.33;7.35;;;;;;;10.13;83.96;95180.16;5092914;28;20637;-88
2022/10/23 02:12:50;;;;;;;15.85;7.00;;;;;;;10.02;83.79;95166.09;5085568;28;20198;-87
2022/10/23 02:15:24;;;;;;;15.75;7.95;;;;;;;9.70;84.26;95123.91;5089734;28;20201;-89
2022/10/23 02:18:01;;;;;;;15.80;7.40;;;;;;;10.10;84.29;95202.44;5087749;28;20205;-90
2022/10/23 02:20:33;;;;;;;14.65;7.38;;;;;;;9.68;84.27;95145.06;5085656;28;20215;-90
2022/10/23 02:23:08;;;;;;;16.25;8.07;;;;;;;9.79;84.40;95170.75;5074239;28;20214;-88
2022/10/23 02:25:42;;;;;;;18.63;9.07;;;;;;;9.81;84.54;95173.94;5093200;28;20205;-88
2022/10/23 02:28:15;;;;;;;11.13;7.15;;;;;;;10.12;84.32;95211.03;5078823;28;20202;-88
2022/10/23 02:30:46;;;;;;;13.95;6.63;;;;;;;10.03;84.25;95191.25;5085880;28;20195;-87
2022/10/23 02:33:14;;;;;;;14.98;7.15;;;;;;;10.03;84.16;95185.84;5094541;28;20205;-89
2022/10/23 02:35:41;;;;;;;12.95;6.38;;;;;;;10.03;83.45;95164.97;5091484;28;20202;-88
2022/10/23 02:38:27;;;;;;;9.30;5.97;;;;;;;10.36;83.21;95206.13;5075711;28;20226;-87
2022/10/23 02:40:58;;;;;;;13.95;7.95;;;;;;;10.31;83.36;95208.94;5075944;28;20203;-88
2022/10/23 02:43:33;;;;;;;11.77;6.05;;;;;;;10.03;83.19;95156.84;5094403;28;20230;-87
2022/10/23 02:46:10;;;;;;;9.50;6.55;;;;;;;10.43;82.98;95206.44;5076945;28;20221;-88
2022/10/23 02:48:45;;;;;;;13.52;7.30;;;;;;;10.42;82.37;95199.44;5073814;28;20209;-87
2022/10/23 02:51:17;;;;;;;15.52;6.03;;;;;;;10.05;82.10;95145.72;5087041;28;20281;-90
2022/10/23 02:53:52;;;;;;;16.17;6.88;;;;;;;10.39;82.26;95188.44;5087633;28;20316;-88
2022/10/23 02:56:28;;;;;;;9.88;5.57;;;;;;;10.42;82.22;95183.19;5093885;28;20629;-88
2022/10/23 02:59:04;;;;;;;9.13;5.57;;;;;;;10.31;82.24;95174.53;5090908;28;20198;-89
2022/10/23 03:01:38;;;;;;;16.83;5.90;;;;;;;10.28;82.43;95177.06;5084843;28;20237;-86
2022/10/23 03:04:08;;;;;;;11.35;6.60;;;;;;;10.36;82.94;95206.13;5088365;28;20199;-89
2022/10/23 03:06:35;;;;;;;13.77;6.80;;;;;;;10.04;84.25;95203.66;5086665;28;20283;-88
2022/10/23 03:09:05;;;;;;;9.07;5.95;;;;;;;9.62;84.50;95168.72;5081075;28;20210;-88
2022/10/23 03:11:32;;;;;;;8.15;5.30;;;;;;;9.77;84.79;95205.41;5093412;28;20560;-89
2022/10/23 03:14:01;;;;;;;11.23;6.05;;;;;;;9.45;85.03;95171.28;5086572;28;20203;-88
2022/10/23 03:16:28;;;;;;;7.78;5.40;;;;;;;9.88;85.12;95238.44;5087121;28;20840;-88
2022/10/23 03:18:55;;;;;;;9.05;5.40;;;;;;;9.64;84.82;95184.63;5081628;28;20281;-88
2022/10/23 03:21:22;;;;;;;12.45;6.15;;;;;;;9.93;84.98;95220.19;5094009;28;20305;-89
2022/10/23 03:23:49;;;;;;;11.60;6.18;;;;;;;9.87;84.63;95213.28;5085810;28;20646;-89
2022/10/23 03:26:16;;;;;;;9.02;5.07;;;;;;;10.18;84.14;95242.28;5087763;28;20220;-89
2022/10/23 03:28:43;;;;;;;10.65;5.15;;;;;;;10.06;83.43;95196.03;5073819;28;20199;-88
2022/10/23 03:31:12;;;;;;;11.30;5.93;;;;;;;10.01;83.13;95182.63;5086561;28;20239;-89
2022/10/23 03:33:38;;;;;;;14.15;5.53;;;;;;;10.15;83.03;95213.94;5073106;28;20203;-87
2022/10/23 03:36:06;;;;;;;16.42;4.63;;;;;;;10.26;82.71;95215.28;5089049;28;20199;-87
2022/10/23 03:38:32;;;;;;;8.95;4.90;;;;;;;10.57;81.97;95244.28;5093518;28;20201;-89
2022/10/23 03:40:59;;;;;;;9.45;4.90;;;;;;;10.41;80.90;95195.13;5093416;28;20242;-86
2022/10/23 03:43:26;;;;;;;7.13;4.80;;;;;;;10.42;82.41;95253.59;5092842;28;20234;-88
2022/10/23 03:45:53;;;;;;;21.42;6.60;;;;;;;10.22;82.00;95205.41;5095655;28;20195;-88
2022/10/23 03:48:22;;;;;;;10.95;4.97;;;;;;;10.15;81.76;95188.75;5093568;28;20210;-87
2022/10/23 03:50:49;;;;;;;13.00;6.45;;;;;;;10.25;81.32;95193.97;5099019;28;20190;-88
2022/10/23 03:53:16;;;;;;;6.95;4.63;;;;;;;10.05;82.52;95189.84;5084912;28;20214;-87
2022/10/23 03:55:44;;;;;;;9.13;5.25;;;;;;;10.14;82.53;95219.66;5086691;28;20282;-89
2022/10/23 03:58:11;;;;;;;9.07;4.78;;;;;;;10.10;82.77;95224.09;5073108;28;20203;-88
2022/10/23 04:00:38;;;;;;;7.07;4.72;;;;;;;10.05;82.57;95225.03;5090820;28;20228;-87
2022/10/23 04:03:05;;;;;;;8.25;5.57;;;;;;;10.13;82.08;95250.53;5091650;28;20213;-89
2022/10/23 04:05:34;;;;;;;8.88;4.93;;;;;;;9.78;82.65;95215.13;5092943;28;20209;-88
2022/10/23 04:08:04;;;;;;;11.90;5.47;;;;;;;10.29;81.24;95270.72;5081247;28;20227;-87
2022/10/23 04:10:31;;;;;;;10.48;5.43;;;;;;;10.25;79.88;95240.75;5072930;28;20226;-89
2022/10/23 04:12:58;;;;;;;5.72;3.20;;;;;;;10.64;77.02;95256.28;5085152;28;20201;-88
2022/10/23 04:15:25;;;;;;;6.90;4.18;;;;;;;10.51;75.95;95191.38;5087044;28;20233;-88
2022/10/23 04:17:51;;;;;;;6.38;3.00;;;;;;;10.68;74.71;95203.03;5084718;28;20278;-88
2022/10/23 04:20:18;;;;;;;6.43;4.35;;;;;;;10.82;73.84;95212.97;5092647;28;20221;-88
2022/10/23 04:22:47;;;;;;;5.07;3.45;;;;;;;10.98;73.66;95222.25;5092349;28;20209;-88
2022/10/23 04:25:15;;;;;;;3.92;2.88;;;;;;;10.92;73.51;95234.38;5092197;28;20205;-88
2022/10/23 04:27:42;;;;;;;9.68;3.63;;;;;;;10.68;73.30;95207.66;5092048;28;20206;-90
2022/10/23 04:30:10;;;;;;;6.80;3.15;;;;;;;10.89;72.41;95218.75;5092579;28;20209;-88
2022/10/23 04:32:37;;;;;;;8.55;4.18;;;;;;;10.99;71.68;95207.59;5092086;28;20209;-88
2022/10/23 04:35:04;;;;;;;3.88;3.17;;;;;;;11.49;70.51;95258.72;5085168;28;20211;-87
2022/10/23 04:37:31;;;;;;;4.18;2.83;;;;;;;11.20;70.95;95224.88;5072765;28;20285;-87
2022/10/23 04:39:59;;;;;;;7.38;4.28;;;;;;;11.05;70.78;95203.63;5072679;28;20198;-87
2022/10/23 04:42:26;;;;;;;9.30;4.00;;;;;;;11.02;71.15;95207.78;5085425;28;20305;-86
2022/10/23 04:44:53;;;;;;;4.22;2.97;;;;;;;11.28;70.54;95220.56;5079601;28;20316;-88
2022/10/23 04:47:20;;;;;;;3.80;2.85;;;;;;;11.59;69.25;95270.09;5093093;28;20212;-87
2022/10/23 04:49:47;;;;;;;4.32;2.67;;;;;;;11.51;68.57;95213.09;5092709;28;20212;-89
2022/10/23 04:52:15;;;;;;;4.72;2.80;;;;;;;11.35;69.30;95213.53;5078901;28;20278;-90
2022/10/23 04:54:44;;;;;;;11.80;4.78;;;;;;;11.58;69.60;95252.22;5092123;28;20213;-86
2022/10/23 04:57:12;;;;;;;4.30;2.75;;;;;;;11.72;69.52;95262.91;5078731;28;20195;-86
2022/10/23 04:59:39;;;;;;;4.88;2.47;;;;;;;11.45;68.86;95215.16;5084119;28;20216;-89
2022/10/23 05:02:06;;;;;;;8.80;3.25;;;;;;;11.60;68.82;95238.31;5082068;28;20226;-88
2022/10/23 05:04:33;;;;;;;10.45;3.67;;;;;;;11.55;68.59;95227.63;5081070;28;20217;-87
2022/10/23 05:07:00;;;;;;;6.35;3.63;;;;;;;11.46;68.24;95208.63;5083620;28;20210;-88
2022/10/23 05:09:27;;;;;;;6.97;2.70;;;;;;;12.05;67.02;95249.66;5078296;28;20230;-86
2022/10/23 05:11:54;;;;;;;7.57;3.25;;;;;;;12.50;66.30;95271.81;5085188;28;20194;-87
2022/10/23 05:14:25;;;;;;;5.25;2.28;;;;;;;12.82;64.26;95251.41;5080273;28;20202;-86
2022/10/23 05:16:59;;;;;;;5.40;2.80;;;;;;;13.42;62.40;95240.22;5080455;28;20256;-88
2022/10/23 05:19:30;;;;;;;7.97;2.88;;;;;;;14.28;60.13;95251.53;5082072;28;20199;-88
2022/10/23 05:21:57;;;;;;;9.65;2.67;;;;;;;14.83;58.08;95216.47;5109044;28;20209;-86
2022/10/23 05:24:25;;;;;;;8.85;2.53;;;;;;;15.07;58.07;95234.00;5107881;28;20712;-89
2022/10/23 05:26:52;;;;;;;13.88;2.80;;;;;;;15.05;57.47;95233.53;5088575;28;20221;-87
2022/10/23 05:29:20;;;;;;;5.82;2.97;;;;;;;15.05;57.83;95258.09;5108035;28;20224;-89
2022/10/23 05:31:54;;;;;;;4.57;2.65;;;;;;;15.54;56.47;95262.41;5104502;28;20224;-92
2022/10/23 05:34:27;;;;;;;4.22;2.83;;;;;;;15.96;54.94;95237.53;5102146;28;20202;-91
2022/10/23 05:36:55;;;;;;;6.15;2.13;;;;;;;16.59;53.41;95265.84;5089794;28;20218;-94
2022/10/23 05:39:22;;;;;;;8.35;4.20;;;;;;;16.60;53.37;95242.03;5095251;28;20186;-92
2022/10/23 05:41:50;;;;;;;8.32;4.10;;;;;;;17.23;53.02;95280.41;5086450;28;20640;-93
2022/10/23 05:44:16;;;;;;;3.50;2.40;;;;;;;16.21;55.66;95249.97;5095556;28;20371;-92
2022/10/23 05:46:44;;;;;;;2.40;1.88;;;;;;;15.95;57.33;95287.88;5091202;28;20198;-92
2022/10/23 05:49:19;;;;;;;4.57;2.75;;;;;;;15.53;58.54;95271.75;5106742;28;20245;-91
2022/10/23 05:51:47;;;;;;;5.72;2.42;;;;;;;15.23;59.56;95257.53;5113140;28;20231;-91
2022/10/23 05:54:14;;;;;;;7.97;3.53;;;;;;;15.46;60.31;95287.91;5106917;28;20213;-94
2022/10/23 05:56:41;;;;;;;5.40;3.15;;;;;;;15.49;61.38;95306.34;5105967;28;20245;-92
2022/10/23 05:59:09;;;;;;;4.05;2.33;;;;;;;15.42;61.91;95300.66;5100716;28;20201;-92
2022/10/23 06:01:36;;;;;;;9.63;4.45;;;;;;;16.18;59.90;95299.88;5102607;28;20214;-92
2022/10/23 06:04:04;;;;;;;6.13;4.15;;;;;;;16.11;59.83;95269.59;5101230;28;20230;-93
2022/10/23 06:06:33;;;;;;;11.52;4.50;;;;;;;16.95;59.45;95307.88;5091038;28;20205;-93
2022/10/23 06:09:00;;;;;;;2.15;1.55;;;;;;;17.31;59.12;95295.91;5096950;28;20226;-93
2022/10/23 06:11:27;;;;;;;6.72;4.47;;;;;;;16.92;61.12;95325.81;5084871;28;20226;-93
2022/10/23 06:13:59;;;;;;;4.57;2.30;;;;;;;16.22;63.08;95311.72;5089153;28;20626;-93
2022/10/23 06:16:27;;;;;;;7.20;2.70;;;;;;;15.83;65.35;95309.75;5080740;28;20210;-93
2022/10/23 06:18:57;;;;;;;5.95;3.80;;;;;;;15.75;66.00;95313.41;5089114;28;20198;-93
2022/10/23 06:21:25;;;;;;;6.82;4.22;;;;;;;16.05;66.77;95346.72;5093218;28;20214;-93
2022/10/23 06:23:57;;;;;;;5.55;3.47;;;;;;;16.07;67.57;95353.44;5106472;28;20192;-91
2022/10/23 06:26:24;;;;;;;7.85;4.20;;;;;;;15.74;67.71;95295.41;5099407;28;20238;-92
2022/10/23 06:29:00;;;;;;;6.28;3.58;;;;;;;15.80;68.56;95299.50;5108197;28;20198;-92
2022/10/23 06:31:27;;;;;;;5.00;3.00;;;;;;;16.26;68.39;95339.16;5093073;22;20316;-79
2022/10/23 06:33:54;;;;;;;3.40;2.33;;;;;;;16.28;68.68;95336.84;5060627;28;20229;-74
2022/10/23 06:36:21;;;;;;;7.13;3.45;;;;;;;16.27;68.57;95344.25;5058341;28;20211;-76
2022/10/23 06:38:48;;;;;;;10.32;4.05;;;;;;;16.32;68.74;95349.50;5062005;28;20765;-79
2022/10/23 06:41:18;;;;;;;6.80;3.65;;;;;;;16.30;68.57;95335.38;5060674;28;20229;-77
2022/10/23 06:43:47;;;;;;;7.00;3.80;;;;;;;16.57;68.10;95343.94;5062799;28;20203;-78
2022/10/23 06:46:14;;;;;;;12.55;3.88;;;;;;;16.87;66.55;95347.94;5060252;28;20196;-74
2022/10/23 06:48:41;;;;;;;6.47;3.63;;;;;;;16.88;66.50;95355.03;5055928;28;20600;-76
2022/10/23 06:51:10;;;;;;;6.82;3.95;;;;;;;16.55;67.16;95344.28;5058002;28;20611;-78
2022/10/23 06:53:37;;;;;;;8.27;4.15;;;;;;;16.57;67.31;95354.88;5063125;28;20234;-76
2022/10/23 06:56:07;;;;;;;9.07;4.07;;;;;;;16.63;66.80;95359.00;5052012;28;20609;-79
2022/10/23 06:58:36;;;;;;;7.78;3.90;;;;;;;16.79;67.18;95367.28;5051457;28;20727;-78
2022/10/23 07:01:05;;;;;;;7.93;4.10;;;;;;;16.83;66.22;95363.47;5051462;28;20203;-79
2022/10/23 07:03:33;;;;;;;12.43;4.00;;;;;;;16.91;66.39;95362.53;5050667;28;20240;-76
2022/10/23 07:06:01;;;;;;;8.43;3.90;;;;;;;16.91;65.65;95346.13;5051543;28;20727;-79
2022/10/23 07:08:27;;;;;;;8.98;3.70;;;;;;;17.02;65.82;95355.41;5051659;28;20265;-79
2022/10/23 07:10:54;;;;;;;6.35;3.28;;;;;;;17.12;65.11;95364.25;5051160;28;20192;-74
2022/10/23 07:13:21;;;;;;;7.63;3.85;;;;;;;17.19;65.16;95358.97;5051741;28;20747;-81
2022/10/23 07:15:49;;;;;;;8.07;4.60;;;;;;;17.20;65.06;95355.09;5051885;28;20310;-79
2022/10/23 07:18:18;;;;;;;5.93;3.67;;;;;;;17.19;65.32;95358.97;5051552;28;20258;-77
2022/10/23 07:20:46;;;;;;;8.48;3.85;;;;;;;17.27;64.80;95355.25;5051234;28;20640;-76
2022/10/23 07:23:14;;;;;;;7.45;4.35;;;;;;;17.27;64.51;95349.78;5049764;28;20234;-80
2022/10/23 07:25:41;;;;;;;9.68;4.03;;;;;;;17.41;64.82;95355.63;5051963;28;20293;-76
2022/10/23 07:28:08;;;;;;;6.05;4.15;;;;;;;17.37;64.71;95360.19;5050770;28;20254;-76
2022/10/23 07:30:35;;;;;;;7.70;4.07;;;;;;;17.51;64.26;95360.56;5050532;28;20203;-78
2022/10/23 07:33:03;;;;;;;6.30;3.80;;;;;;;17.62;64.12;95356.16;5050547;28;20211;-78
2022/10/23 07:35:30;;;;;;;5.35;3.60;;;;;;;17.68;62.71;95349.28;5049673;28;20719;-77
2022/10/23 07:37:59;;;;;;;3.83;2.55;;;;;;;17.62;62.84;95350.69;5053467;28;20210;-79
2022/10/23 07:40:26;;;;;;;8.35;4.05;;;;;;;17.73;62.51;95346.28;5069172;28;20303;-77
2022/10/23 07:42:53;;;;;;;7.95;3.65;;;;;;;17.79;62.42;95348.72;5070273;28;20288;-81
2022/10/23 07:45:19;;;;;;;7.10;3.90;;;;;;;17.96;61.92;95348.34;5059425;28;20256;-81
2022/10/23 07:47:50;;;;;;;7.60;3.90;;;;;;;18.25;61.20;95356.06;5045397;28;20200;-80
2022/10/23 07:50:19;;;;;;;8.15;4.18;;;;;;;18.28;60.60;95355.38;5042442;28;20227;-75
2022/10/23 07:52:46;;;;;;;7.22;4.07;;;;;;;18.25;60.02;95358.81;5050323;28;20293;-74
2022/10/23 07:55:13;;;;;;;5.65;3.88;;;;;;;18.22;60.41;95367.75;5050150;28;20199;-76
2022/10/23 07:57:39;;;;;;;6.38;3.65;;;;;;;18.44;59.36;95364.34;5069026;28;20203;-79
2022/10/23 08:00:07;;;;;;;7.03;3.00;;;;;;;18.33;59.12;95366.03;5070655;28;20273;-77
2022/10/23 08:02:34;;;;;;;10.00;2.65;;;;;;;18.40;58.81;95363.47;5064418;28;20231;-78
2022/10/23 08:05:01;;;;;;;5.63;3.67;;;;;;;18.58;59.05;95363.06;5062748;28;20268;-75
2022/10/23 08:07:29;;;;;;;4.80;3.13;;;;;;;18.65;58.38;95360.47;5063484;28;20302;-78
2022/10/23 08:09:56;;;;;;;4.25;2.88;;;;;;;18.39;58.61;95361.88;5055684;28;20265;-76
2022/10/23 08:12:22;;;;;;;7.05;3.58;;;;;;;18.48;59.14;95362.44;5056860;28;20272;-80
2022/10/23 08:14:49;;;;;;;6.82;3.50;;;;;;;18.56;58.64;95371.63;5059962;28;20207;-77
2022/10/23 08:17:16;;;;;;;4.50;2.97;;;;;;;18.29;58.91;95354.22;5059489;28;20257;-79
2022/10/23 08:19:45;;;;;;;4.78;3.10;;;;;;;18.39;59.44;95361.88;5058375;28;20203;-80
2022/10/23 08:22:12;;;;;;;3.38;2.58;;;;;;;18.24;59.31;95359.97;5057148;28;20219;-74
2022/10/23 08:24:40;;;;;;;6.22;2.88;;;;;;;18.30;59.24;95364.03;5060422;28;20275;-73
2022/10/23 08:27:07;;;;;;;5.32;3.10;;;;;;;18.48;58.92;95359.69;5059838;28;20257;-79
2022/10/23 08:29:34;;;;;;;5.53;3.22;;;;;;;18.47;58.78;95352.63;5057516;28;20248;-78
2022/10/23 08:32:00;;;;;;;7.15;3.58;;;;;;;18.65;58.68;95368.69;5058390;28;20258;-79
2022/10/23 08:34:27;;;;;;;4.43;2.45;;;;;;;18.51;58.34;95362.88;5061274;28;20198;-79
2022/10/23 08:36:54;;;;;;;4.57;2.50;;;;;;;18.60;58.29;95361.53;5057017;28;20578;-81
2022/10/23 08:39:21;;;;;;;5.68;3.60;;;;;;;18.84;58.16;95354.19;5058566;28;20212;-78
2022/10/23 08:41:51;;;;;;;8.75;4.00;;;;;;;18.87;58.19;95365.22;5058716;28;20199;-77
2022/10/23 08:44:23;;;;;;;5.22;3.10;;;;;;;18.75;57.73;95357.13;5053480;28;20744;-78
2022/10/23 08:46:54;;;;;;;4.30;2.90;;;;;;;18.82;58.14;95354.56;5057121;28;20206;-74
2022/10/23 08:49:34;;;;;;;4.28;3.10;;;;;;;18.93;58.06;95358.28;5055799;28;20191;-81
2022/10/23 08:52:11;;;;;;;3.75;3.20;;;;;;;18.77;58.59;95371.31;5057690;28;20214;-80
2022/10/23 08:54:50;;;;;;;4.38;2.97;;;;;;;18.99;58.21;95356.84;5059465;28;20196;-83
2022/10/23 08:57:22;;;;;;;3.33;2.38;;;;;;;19.23;57.99;95365.91;5057808;28;20253;-77
2022/10/23 08:59:54;;;;;;;7.40;3.17;;;;;;;18.98;57.72;95338.78;5050278;28;20678;-78
2022/10/23 09:02:25;;;;;;;4.10;2.53;;;;;;;19.09;57.67;95350.75;5067415;28;20314;-76
2022/10/23 09:04:54;;;;;;;3.80;2.97;;;;;;;19.52;56.66;95335.06;5068992;28;20214;-79
2022/10/23 09:07:36;;;;;;;4.85;3.30;;;;;;;19.47;56.92;95354.56;5058712;28;20241;-78
2022/10/23 09:10:21;;;;;;;3.80;2.60;;;;;;;19.18;57.08;95356.81;5057732;28;20272;-78
2022/10/23 09:12:49;;;;;;;4.07;2.60;;;;;;;19.12;56.65;95355.53;5059141;28;20508;-73
2022/10/23 09:15:23;;;;;;;2.90;2.00;;;;;;;19.25;56.83;95358.13;5053864;28;20192;-78
2022/10/23 09:17:55;;;;;;;4.13;2.80;;;;;;;19.34;56.66;95344.91;5057521;28;20191;-75
2022/10/23 09:20:25;;;;;;;5.30;3.08;;;;;;;19.49;56.30;95352.28;5055674;28;20191;-72
2022/10/23 09:22:55;;;;;;;5.57;2.75;;;;;;;19.52;55.88;95354.31;5055204;28;20698;-74
2022/10/23 09:25:25;;;;;;;6.20;2.45;;;;;;;19.55;56.00;95353.53;5058457;28;20238;-75
2022/10/23 09:27:56;;;;;;;4.93;2.53;;;;;;;19.57;55.80;95348.47;5057817;28;20291;-73
2022/10/23 09:30:32;;;;;;;4.30;2.53;;;;;;;19.28;56.87;95354.59;5054497;28;20728;-73
2022/10/23 09:33:00;;;;;;;3.55;2.75;;;;;;;19.56;56.99;95346.88;5057573;28;20227;-73
2022/10/23 09:35:29;;;;;;;5.38;2.78;;;;;;;19.58;56.61;95341.81;5055817;28;20795;-76
2022/10/23 09:37:56;;;;;;;4.72;2.50;;;;;;;19.63;56.00;95330.53;5058663;28;20268;-73
2022/10/23 09:40:32;;;;;;;5.53;2.50;;;;;;;19.73;55.56;95329.09;5059603;28;20284;-77
2022/10/23 09:43:03;;;;;;;4.20;2.65;;;;;;;19.87;55.23;95340.34;5051479;28;20692;-74
2022/10/23 09:45:32;;;;;;;6.38;2.65;;;;;;;19.83;55.65;95326.53;5051818;28;20188;-80
2022/10/23 09:48:16;;;;;;;3.08;2.22;;;;;;;19.86;54.85;95328.53;5054145;28;20249;-79
2022/10/23 09:50:48;;;;;;;4.13;2.50;;;;;;;19.75;55.62;95322.09;5056253;28;20187;-79
2022/10/23 09:53:18;;;;;;;6.97;2.50;;;;;;;20.02;54.87;95324.84;5053059;28;20720;-78
2022/10/23 09:55:52;;;;;;;2.67;2.03;;;;;;;19.90;54.28;95328.59;5058538;28;20706;-79
2022/10/23 09:58:25;;;;;;;4.18;1.95;;;;;;;20.05;53.64;95321.34;5054110;28;20191;-80
2022/10/23 10:00:52;;;;;;;6.10;1.90;;;;;;;20.14;53.82;95327.38;5058359;28;20192;-83
2022/10/23 10:03:22;;;;;;;2.88;2.15;;;;;;;20.17;53.07;95327.44;5060128;28;20218;-82
2022/10/23 10:05:55;;;;;;;3.45;1.77;;;;;;;20.27;52.25;95325.97;5059746;28;20576;-76
2022/10/23 10:08:27;;;;;;;6.30;1.70;;;;;;;20.17;51.82;95310.91;5058836;28;20648;-76
2022/10/23 10:11:00;;;;;;;3.03;1.73;;;;;;;20.13;52.09;95314.78;5063297;28;20191;-78
2022/10/23 10:13:52;;;;;;;2.35;1.70;;;;;;;19.99;51.45;95314.56;5064619;28;20277;-80
2022/10/23 10:16:27;;;;;;;2.70;1.85;;;;;;;20.23;51.52;95312.16;5059661;28;20196;-82
2022/10/23 10:19:01;;;;;;;3.80;1.95;;;;;;;20.32;51.63;95308.38;5060855;28;20319;-81
2022/10/23 10:21:34;;;;;;;3.53;2.08;;;;;;;20.43;51.49;95312.06;5058701;28;20237;-84
2022/10/23 10:24:08;;;;;;;2.38;1.80;;;;;;;20.50;51.91;95301.94;5059583;28;20219;-79
2022/10/23 10:26:44;;;;;;;5.25;2.10;;;;;;;20.67;50.22;95305.28;5063391;28;20199;-77
2022/10/23 10:29:24;;;;;;;1.98;1.50;;;;;;;20.49;49.86;95299.59;5059854;28;20187;-84
2022/10/23 10:32:04;;;;;;;4.55;1.70;;;;;;;20.76;48.57;95297.53;5058675;28;20562;-76
2022/10/23 10:34:40;;;;;;;3.42;2.00;;;;;;;21.02;47.74;95283.66;5058477;28;20200;-77
2022/10/23 10:37:20;;;;;;;1.67;1.40;;;;;;;20.93;48.44;95289.44;5060074;28;20194;-78
2022/10/23 10:39:53;;;;;;;1.80;1.40;;;;;;;20.96;47.08;95285.16;5058606;28;20222;-77
2022/10/23 10:42:31;;;;;;;3.38;1.85;;;;;;;21.02;47.40;95289.16;5057654;28;20188;-78
2022/10/23 10:45:16;;;;;;;3.40;1.83;;;;;;;21.04;47.39;95286.03;5059867;28;20204;-82
2022/10/23 10:47:52;;;;;;;1.90;1.70;;;;;;;20.81;45.89;95294.44;5057031;28;20183;-79
2022/10/23 10:50:23;;;;;;;2.47;1.45;;;;;;;20.70;46.18;95288.00;5059741;28;20245;-80
2022/10/23 10:53:04;;;;;;;2.40;1.05;;;;;;;20.54;46.26;95279.97;5059985;28;20295;-78
2022/10/23 10:55:36;;;;;;;7.32;1.80;;;;;;;20.73;46.39;95290.03;5061124;28;20620;-79
2022/10/23 10:58:10;;;;;;;2.45;1.65;;;;;;;20.84;47.69;95293.69;5053499;28;20192;-79
2022/10/23 11:00:38;;;;;;;2.35;1.48;;;;;;;20.63;47.42;95276.94;5065549;28;20210;-80
2022/10/23 11:03:21;;;;;;;3.50;2.03;;;;;;;20.53;47.69;95289.38;5046759;28;20721;-76
2022/10/23 11:05:49;;;;;;;5.18;1.98;;;;;;;20.51;47.44;95281.50;5051572;28;20238;-75
2022/10/23 11:08:20;;;;;;;5.78;1.85;;;;;;;20.66;47.47;95278.91;5051819;28;20370;-77
2022/10/23 11:10:52;;;;;;;5.07;1.80;;;;;;;20.53;47.60;95273.66;5038732;28;20199;-73
2022/10/23 11:13:26;;;;;;;4.30;1.60;;;;;;;20.57;47.61;95271.75;5063958;28;20294;-75
2022/10/23 11:16:00;;;;;;;2.53;1.70;;;;;;;20.72;47.40;95263.66;5051571;28;20246;-77
2022/10/23 11:18:30;;;;;;;2.08;1.63;;;;;;;20.93;46.83;95266.63;5037877;28;20192;-74
2022/10/23 11:21:18;;;;;;;3.13;1.55;;;;;;;20.84;47.04;95266.16;5051408;28;20192;-77
2022/10/23 11:24:12;;;;;;;3.50;1.45;;;;;;;20.72;46.52;95258.16;5044349;28;20216;-77
2022/10/23 11:26:51;;;;;;;1.90;1.60;;;;;;;20.67;46.63;95245.50;5051824;28;20758;-77
2022/10/23 11:29:42;;;;;;;2.42;1.75;;;;;;;20.92;46.61;95251.25;5054628;28;20245;-73
2022/10/23 11:32:29;;;;;;;2.13;1.63;;;;;;;20.88;47.09;95250.44;5052823;28;20231;-79
2022/10/23 11:35:20;;;;;;;5.00;1.83;;;;;;;20.67;47.90;95240.00;5051623;28;20250;-79
2022/10/23 11:37:58;;;;;;;2.40;1.88;;;;;;;20.52;48.10;95243.75;5054959;28;20264;-74
2022/10/23 11:40:25;;;;;;;1.95;1.77;;;;;;;20.68;48.07;95235.28;5057843;28;20222;-76
2022/10/23 11:42:53;;;;;;;2.53;1.65;;;;;;;20.84;46.91;95230.34;5053544;28;20208;-76
2022/10/23 11:45:31;;;;;;;3.42;1.75;;;;;;;20.94;47.29;95226.88;5039867;28;20205;-76
2022/10/23 11:48:01;;;;;;;6.75;1.77;;;;;;;20.86;47.42;95225.25;5064127;28;20199;-78